Decoded Metar for KCLI (CLINTONVILLE in WI, USA) (IATA:CLI) | Meteo·Mobile Aviation Weather
aviador You're here:

KCLI Decoded Metar

CLINTONVILLE in WI, USA
Report Time2018-10-18 08:35:00
UTC Time2018-10-18 08:54:29
Flight Rules vfr VFR
WindCalm
Visibility9999 m
Phenomena:N/A
Clouds:N/A
Expected CloudBase > 800 ft AGL from Temp-Dew spread
CeilingNone
Temp-4°C (ISA -17)
Dew Point-6°C (86% RH)
AAT-6.7°C
QNH1031 hPa
Density Alt-1,873 ft
Elevation820 ft
Report Wrong Elevation
Raw Report
KCLI 180835Z AUTO 00000KT 10SM CLR M04/M06 A3046 RMK AO2
T10381056=

Extra information for KCLI:More info

Metar Taf Metar & Taf Last 4 Metars F.Rules Stats Wind Profile Meteogram Temp Stats Airport Information Weather charts Add Link Nearby VenuesMetar ALERT Operation Metar Decoded Social comments

AIRNAV info for KCLI